sensor_id;sensor_type;location;lat;lon;timestamp;pressure;altitude;pressure_sealevel;temperature;humidity
30343;BME280;17145;49.902;8.680;'2022-12-29 00:58:19';99370;;;9;48
30343;BME280;17145;49.902;8.680;'2022-12-29 01:00:47';99370;;;9;48
30343;BME280;17145;49.902;8.680;'2022-12-29 01:03:14';99370;;;9;49
30343;BME280;17145;49.902;8.680;'2022-12-29 01:05:41';99360;;;9;48
30343;BME280;17145;49.902;8.680;'2022-12-29 01:08:09';99360;;;9;49
30343;BME280;17145;49.902;8.680;'2022-12-29 01:10:36';99360;;;9;49
30343;BME280;17145;49.902;8.680;'2022-12-29 01:13:04';99360;;;9;49
30343;BME280;17145;49.902;8.680;'2022-12-29 01:15:31';99380;;;9;49
30343;BME280;17145;49.902;8.680;'2022-12-29 01:17:58';99360;;;9;49
30343;BME280;17145;49.902;8.680;'2022-12-29 01:20:25';99360;;;9;50
30343;BME280;17145;49.902;8.680;'2022-12-29 01:22:53';99360;;;9;50
30343;BME280;17145;49.902;8.680;'2022-12-29 01:25:20';99360;;;9;49
30343;BME280;17145;49.902;8.680;'2022-12-29 01:27:48';99380;;;9;50
30343;BME280;17145;49.902;8.680;'2022-12-29 01:30:17';99360;;;9;49
30343;BME280;17145;49.902;8.680;'2022-12-29 01:32:44';99360;;;9;50
30343;BME280;17145;49.902;8.680;'2022-12-29 01:35:15';99370;;;9;50
30343;BME280;17145;49.902;8.680;'2022-12-29 01:37:46';99370;;;9;50
30343;BME280;17145;49.902;8.680;'2022-12-29 01:40:13';99370;;;9;51
30343;BME280;17145;49.902;8.680;'2022-12-29 01:42:40';99380;;;9;52
30343;BME280;17145;49.902;8.680;'2022-12-29 01:45:08';99360;;;10;53
30343;BME280;17145;49.902;8.680;'2022-12-29 01:47:35';99360;;;9;53
30343;BME280;17145;49.902;8.680;'2022-12-29 01:50:03';99360;;;9;53
30343;BME280;17145;49.902;8.680;'2022-12-29 01:52:31';99350;;;9;53
30343;BME280;17145;49.902;8.680;'2022-12-29 01:54:58';99360;;;9;52
30343;BME280;17145;49.902;8.680;'2022-12-29 01:57:25';99360;;;10;53
30343;BME280;17145;49.902;8.680;'2022-12-29 01:59:53';99350;;;9;53
30343;BME280;17145;49.902;8.680;'2022-12-29 02:02:20';99360;;;10;53
30343;BME280;17145;49.902;8.680;'2022-12-29 02:04:47';99360;;;9;53
30343;BME280;17145;49.902;8.680;'2022-12-29 02:07:15';99360;;;9;54
30343;BME280;17145;49.902;8.680;'2022-12-29 02:09:42';99360;;;10;53
30343;BME280;17145;49.902;8.680;'2022-12-29 02:12:10';99350;;;9;54
30343;BME280;17145;49.902;8.680;'2022-12-29 02:14:38';99340;;;8;57
30343;BME280;17145;49.902;8.680;'2022-12-29 02:17:06';99350;;;9;57
30343;BME280;17145;49.902;8.680;'2022-12-29 02:19:33';99350;;;9;58
30343;BME280;17145;49.902;8.680;'2022-12-29 02:22:01';99340;;;9;58
30343;BME280;17145;49.902;8.680;'2022-12-29 02:24:29';99340;;;9;59
30343;BME280;17145;49.902;8.680;'2022-12-29 02:26:56';99340;;;9;58
30343;BME280;17145;49.902;8.680;'2022-12-29 02:29:24';99340;;;9;58
30343;BME280;17145;49.902;8.680;'2022-12-29 02:31:51';99340;;;9;58
30343;BME280;17145;49.902;8.680;'2022-12-29 02:34:18';99330;;;9;59
30343;BME280;17145;49.902;8.680;'2022-12-29 02:36:46';99330;;;9;59
30343;BME280;17145;49.902;8.680;'2022-12-29 02:39:13';99320;;;9;58
30343;BME280;17145;49.902;8.680;'2022-12-29 02:44:28';99320;;;10;56
30343;BME280;17145;49.902;8.680;'2022-12-29 02:46:55';99310;;;9;57
30343;BME280;17145;49.902;8.680;'2022-12-29 02:49:27';99310;;;9;58
30343;BME280;17145;49.902;8.680;'2022-12-29 02:51:58';99320;;;9;57
30343;BME280;17145;49.902;8.680;'2022-12-29 02:54:30';99310;;;9;56
30343;BME280;17145;49.902;8.680;'2022-12-29 02:57:02';99300;;;9;56
30343;BME280;17145;49.902;8.680;'2022-12-29 02:59:32';99300;;;9;57
30343;BME280;17145;49.902;8.680;'2022-12-29 03:02:01';99310;;;10;56
30343;BME280;17145;49.902;8.680;'2022-12-29 03:04:32';99300;;;10;56
30343;BME280;17145;49.902;8.680;'2022-12-29 03:07:05';99320;;;9;56
30343;BME280;17145;49.902;8.680;'2022-12-29 03:09:32';99310;;;9;57
30343;BME280;17145;49.902;8.680;'2022-12-29 03:12:00';99310;;;9;58
30343;BME280;17145;49.902;8.680;'2022-12-29 03:14:29';99310;;;9;57
30343;BME280;17145;49.902;8.680;'2022-12-29 03:20:01';99300;;;9;57
30343;BME280;17145;49.902;8.680;'2022-12-29 03:25:21';99310;;;9;57
30343;BME280;17145;49.902;8.680;'2022-12-29 03:27:54';99300;;;9;57
30343;BME280;17145;49.902;8.680;'2022-12-29 03:30:38';99300;;;10;56
30343;BME280;17145;49.902;8.680;'2022-12-29 03:33:17';99300;;;9;56
30343;BME280;17145;49.902;8.680;'2022-12-29 03:35:54';99300;;;9;57
30343;BME280;17145;49.902;8.680;'2022-12-29 03:38:31';99300;;;9;57
30343;BME280;17145;49.902;8.680;'2022-12-29 03:41:07';99290;;;10;56
30343;BME280;17145;49.902;8.680;'2022-12-29 03:43:43';99280;;;10;55
30343;BME280;17145;49.902;8.680;'2022-12-29 03:46:19';99290;;;10;55
30343;BME280;17145;49.902;8.680;'2022-12-29 03:48:52';99300;;;9;56
30343;BME280;17145;49.902;8.680;'2022-12-29 03:51:27';99290;;;9;56
30343;BME280;17145;49.902;8.680;'2022-12-29 03:53:55';99290;;;9;56
30343;BME280;17145;49.902;8.680;'2022-12-29 03:56:23';99290;;;9;57
30343;BME280;17145;49.902;8.680;'2022-12-29 03:58:50';99280;;;9;56
30343;BME280;17145;49.902;8.680;'2022-12-29 04:01:29';99280;;;9;55
30343;BME280;17145;49.902;8.680;'2022-12-29 04:04:09';99270;;;10;55
30343;BME280;17145;49.902;8.680;'2022-12-29 04:06:48';99280;;;10;55
30343;BME280;17145;49.902;8.680;'2022-12-29 04:09:25';99280;;;9;57
30343;BME280;17145;49.902;8.680;'2022-12-29 04:12:01';99280;;;10;55
30343;BME280;17145;49.902;8.680;'2022-12-29 04:14:36';99280;;;10;55
30343;BME280;17145;49.902;8.680;'2022-12-29 04:17:13';99270;;;10;55
30343;BME280;17145;49.902;8.680;'2022-12-29 04:19:49';99260;;;10;55
30343;BME280;17145;49.902;8.680;'2022-12-29 04:22:21';99270;;;10;54
30343;BME280;17145;49.902;8.680;'2022-12-29 04:24:52';99270;;;9;55
30343;BME280;17145;49.902;8.680;'2022-12-29 04:27:24';99260;;;10;55
30343;BME280;17145;49.902;8.680;'2022-12-29 04:29:56';99260;;;9;56
30343;BME280;17145;49.902;8.680;'2022-12-29 04:32:28';99250;;;10;55
30343;BME280;17145;49.902;8.680;'2022-12-29 04:34:58';99270;;;9;56
30343;BME280;17145;49.902;8.680;'2022-12-29 04:37:30';99250;;;10;56
30343;BME280;17145;49.902;8.680;'2022-12-29 04:39:58';99280;;;9;56
30343;BME280;17145;49.902;8.680;'2022-12-29 04:42:29';99260;;;9;55
30343;BME280;17145;49.902;8.680;'2022-12-29 04:44:56';99250;;;10;55
30343;BME280;17145;49.902;8.680;'2022-12-29 04:47:24';99240;;;10;54
30343;BME280;17145;49.902;8.680;'2022-12-29 04:49:52';99260;;;10;54
30343;BME280;17145;49.902;8.680;'2022-12-29 04:52:20';99250;;;10;54
30343;BME280;17145;49.902;8.680;'2022-12-29 04:54:47';99250;;;10;54
30343;BME280;17145;49.902;8.680;'2022-12-29 04:57:14';99260;;;10;54
30343;BME280;17145;49.902;8.680;'2022-12-29 04:59:42';99240;;;10;54
30343;BME280;17145;49.902;8.680;'2022-12-29 05:02:09';99240;;;10;54
30343;BME280;17145;49.902;8.680;'2022-12-29 05:04:36';99240;;;10;54
30343;BME280;17145;49.902;8.680;'2022-12-29 05:07:03';99230;;;10;54
30343;BME280;17145;49.902;8.680;'2022-12-29 05:09:31';99240;;;10;54
30343;BME280;17145;49.902;8.680;'2022-12-29 05:11:58';99230;;;10;54
30343;BME280;17145;49.902;8.680;'2022-12-29 05:14:26';99230;;;10;54
30343;BME280;17145;49.902;8.680;'2022-12-29 05:16:53';99230;;;10;54
30343;BME280;17145;49.902;8.680;'2022-12-29 05:19:21';99240;;;10;53
30343;BME280;17145;49.902;8.680;'2022-12-29 05:21:48';99230;;;10;53
30343;BME280;17145;49.902;8.680;'2022-12-29 05:24:15';99230;;;10;53
30343;BME280;17145;49.902;8.680;'2022-12-29 05:26:43';99220;;;10;53
30343;BME280;17145;49.902;8.680;'2022-12-29 05:29:10';99230;;;10;53
30343;BME280;17145;49.902;8.680;'2022-12-29 05:31:38';99220;;;10;53
30343;BME280;17145;49.902;8.680;'2022-12-29 05:34:05';99220;;;10;53
30343;BME280;17145;49.902;8.680;'2022-12-29 05:36:33';99220;;;10;53
30343;BME280;17145;49.902;8.680;'2022-12-29 05:39:00';99220;;;10;53
30343;BME280;17145;49.902;8.680;'2022-12-29 05:41:28';99220;;;10;53
30343;BME280;17145;49.902;8.680;'2022-12-29 05:43:55';99220;;;10;53
30343;BME280;17145;49.902;8.680;'2022-12-29 05:46:23';99220;;;10;53
30343;BME280;17145;49.902;8.680;'2022-12-29 05:48:50';99220;;;10;53
30343;BME280;17145;49.902;8.680;'2022-12-29 05:51:18';99240;;;10;52
30343;BME280;17145;49.902;8.680;'2022-12-29 05:53:45';99220;;;10;52
30343;BME280;17145;49.902;8.680;'2022-12-29 05:56:12';99230;;;10;52
30343;BME280;17145;49.902;8.680;'2022-12-29 05:58:40';99220;;;10;52
30343;BME280;17145;49.902;8.680;'2022-12-29 06:01:08';99220;;;10;52
30343;BME280;17145;49.902;8.680;'2022-12-29 06:03:35';99220;;;10;52
30343;BME280;17145;49.902;8.680;'2022-12-29 06:06:02';99230;;;10;53
30343;BME280;17145;49.902;8.680;'2022-12-29 06:08:30';99230;;;10;52
30343;BME280;17145;49.902;8.680;'2022-12-29 06:10:57';99220;;;10;52
30343;BME280;17145;49.902;8.680;'2022-12-29 06:13:24';99240;;;10;52
30343;BME280;17145;49.902;8.680;'2022-12-29 06:15:53';99240;;;10;52
30343;BME280;17145;49.902;8.680;'2022-12-29 06:18:21';99240;;;10;52
30343;BME280;17145;49.902;8.680;'2022-12-29 06:20:48';99250;;;10;52
30343;BME280;17145;49.902;8.680;'2022-12-29 06:23:16';99240;;;10;52
30343;BME280;17145;49.902;8.680;'2022-12-29 06:25:44';99240;;;10;51
30343;BME280;17145;49.902;8.680;'2022-12-29 06:28:11';99230;;;10;51
30343;BME280;17145;49.902;8.680;'2022-12-29 06:30:39';99230;;;10;52
30343;BME280;17145;49.902;8.680;'2022-12-29 06:33:06';99230;;;10;52
30343;BME280;17145;49.902;8.680;'2022-12-29 06:35:34';99230;;;10;52
30343;BME280;17145;49.902;8.680;'2022-12-29 06:38:01';99220;;;10;52
30343;BME280;17145;49.902;8.680;'2022-12-29 06:40:28';99220;;;10;52
30343;BME280;17145;49.902;8.680;'2022-12-29 06:42:56';99220;;;10;52
30343;BME280;17145;49.902;8.680;'2022-12-29 06:45:23';99210;;;9;52
30343;BME280;17145;49.902;8.680;'2022-12-29 06:47:50';99210;;;10;52
30343;BME280;17145;49.902;8.680;'2022-12-29 06:50:17';99200;;;10;52
30343;BME280;17145;49.902;8.680;'2022-12-29 06:52:45';99210;;;10;52
30343;BME280;17145;49.902;8.680;'2022-12-29 06:55:13';99210;;;10;53
30343;BME280;17145;49.902;8.680;'2022-12-29 06:57:40';99200;;;10;52
30343;BME280;17145;49.902;8.680;'2022-12-29 07:00:09';99210;;;10;51
30343;BME280;17145;49.902;8.680;'2022-12-29 07:02:36';99200;;;10;51
30343;BME280;17145;49.902;8.680;'2022-12-29 07:05:04';99190;;;10;51
30343;BME280;17145;49.902;8.680;'2022-12-29 07:07:31';99200;;;10;52
30343;BME280;17145;49.902;8.680;'2022-12-29 07:09:59';99200;;;10;51
30343;BME280;17145;49.902;8.680;'2022-12-29 07:12:26';99200;;;10;51
30343;BME280;17145;49.902;8.680;'2022-12-29 07:14:53';99200;;;10;51
30343;BME280;17145;49.902;8.680;'2022-12-29 07:17:21';99210;;;9;53
30343;BME280;17145;49.902;8.680;'2022-12-29 07:19:48';99200;;;10;53
30343;BME280;17145;49.902;8.680;'2022-12-29 07:22:16';99200;;;10;53
30343;BME280;17145;49.902;8.680;'2022-12-29 07:24:43';99200;;;10;52
30343;BME280;17145;49.902;8.680;'2022-12-29 07:27:10';99200;;;10;52
30343;BME280;17145;49.902;8.680;'2022-12-29 07:29:38';99200;;;10;52
30343;BME280;17145;49.902;8.680;'2022-12-29 07:32:05';99210;;;10;52
30343;BME280;17145;49.902;8.680;'2022-12-29 07:34:33';99220;;;10;51
30343;BME280;17145;49.902;8.680;'2022-12-29 07:37:00';99210;;;10;52
30343;BME280;17145;49.902;8.680;'2022-12-29 07:39:28';99220;;;10;53
30343;BME280;17145;49.902;8.680;'2022-12-29 07:41:55';99210;;;10;52
30343;BME280;17145;49.902;8.680;'2022-12-29 07:44:23';99210;;;10;52
30343;BME280;17145;49.902;8.680;'2022-12-29 07:46:50';99220;;;10;51
30343;BME280;17145;49.902;8.680;'2022-12-29 07:49:18';99210;;;10;51
30343;BME280;17145;49.902;8.680;'2022-12-29 07:51:45';99210;;;10;51
30343;BME280;17145;49.902;8.680;'2022-12-29 07:54:13';99200;;;10;51
30343;BME280;17145;49.902;8.680;'2022-12-29 07:56:40';99210;;;10;52
30343;BME280;17145;49.902;8.680;'2022-12-29 07:59:09';99220;;;10;51
30343;BME280;17145;49.902;8.680;'2022-12-29 08:01:37';99210;;;10;51
30343;BME280;17145;49.902;8.680;'2022-12-29 08:04:04';99220;;;10;51
30343;BME280;17145;49.902;8.680;'2022-12-29 08:06:32';99210;;;10;52
30343;BME280;17145;49.902;8.680;'2022-12-29 08:08:59';99220;;;10;51
30343;BME280;17145;49.902;8.680;'2022-12-29 08:11:27';99220;;;10;51
30343;BME280;17145;49.902;8.680;'2022-12-29 08:13:54';99220;;;10;50
30343;BME280;17145;49.902;8.680;'2022-12-29 08:16:21';99230;;;11;50
30343;BME280;17145;49.902;8.680;'2022-12-29 08:18:49';99230;;;10;50
30343;BME280;17145;49.902;8.680;'2022-12-29 08:21:16';99240;;;10;51
30343;BME280;17145;49.902;8.680;'2022-12-29 08:23:44';99240;;;10;51
30343;BME280;17145;49.902;8.680;'2022-12-29 08:26:14';99230;;;10;50
30343;BME280;17145;49.902;8.680;'2022-12-29 08:28:41';99240;;;10;50
30343;BME280;17145;49.902;8.680;'2022-12-29 08:31:14';99240;;;11;50
30343;BME280;17145;49.902;8.680;'2022-12-29 08:33:42';99250;;;10;51
30343;BME280;17145;49.902;8.680;'2022-12-29 08:36:10';99250;;;10;51
30343;BME280;17145;49.902;8.680;'2022-12-29 08:38:37';99240;;;10;51
30343;BME280;17145;49.902;8.680;'2022-12-29 08:41:05';99250;;;11;51
30343;BME280;17145;49.902;8.680;'2022-12-29 08:43:33';99240;;;11;50
30343;BME280;17145;49.902;8.680;'2022-12-29 08:46:00';99240;;;10;51
30343;BME280;17145;49.902;8.680;'2022-12-29 08:48:27';99230;;;10;51
30343;BME280;17145;49.902;8.680;'2022-12-29 08:50:55';99250;;;11;51
30343;BME280;17145;49.902;8.680;'2022-12-29 08:53:22';99250;;;11;51
30343;BME280;17145;49.902;8.680;'2022-12-29 08:55:50';99250;;;10;51
30343;BME280;17145;49.902;8.680;'2022-12-29 08:58:17';99260;;;11;51
30343;BME280;17145;49.902;8.680;'2022-12-29 09:00:45';99260;;;10;51
30343;BME280;17145;49.902;8.680;'2022-12-29 09:03:12';99260;;;10;51
30343;BME280;17145;49.902;8.680;'2022-12-29 09:05:40';99260;;;10;51
30343;BME280;17145;49.902;8.680;'2022-12-29 09:08:07';99260;;;10;51
30343;BME280;17145;49.902;8.680;'2022-12-29 09:10:34';99270;;;10;50
30343;BME280;17145;49.902;8.680;'2022-12-29 09:13:02';99260;;;10;50
30343;BME280;17145;49.902;8.680;'2022-12-29 09:15:29';99270;;;10;50
30343;BME280;17145;49.902;8.680;'2022-12-29 09:17:56';99260;;;11;50
30343;BME280;17145;49.902;8.680;'2022-12-29 09:20:24';99260;;;10;50
30343;BME280;17145;49.902;8.680;'2022-12-29 09:22:51';99270;;;10;50
30343;BME280;17145;49.902;8.680;'2022-12-29 09:25:19';99280;;;10;50
30343;BME280;17145;49.902;8.680;'2022-12-29 09:27:47';99260;;;10;50
30343;BME280;17145;49.902;8.680;'2022-12-29 09:30:14';99270;;;10;50
30343;BME280;17145;49.902;8.680;'2022-12-29 09:32:41';99280;;;10;50
30343;BME280;17145;49.902;8.680;'2022-12-29 09:35:09';99270;;;10;50
30343;BME280;17145;49.902;8.680;'2022-12-29 09:37:36';99270;;;10;50
30343;BME280;17145;49.902;8.680;'2022-12-29 09:40:05';99270;;;11;49
30343;BME280;17145;49.902;8.680;'2022-12-29 09:42:33';99270;;;11;49
30343;BME280;17145;49.902;8.680;'2022-12-29 09:45:01';99270;;;10;49
30343;BME280;17145;49.902;8.680;'2022-12-29 09:47:28';99270;;;10;49
30343;BME280;17145;49.902;8.680;'2022-12-29 09:49:56';99270;;;11;49
30343;BME280;17145;49.902;8.680;'2022-12-29 09:52:23';99270;;;11;49
30343;BME280;17145;49.902;8.680;'2022-12-29 09:54:51';99270;;;11;48
30343;BME280;17145;49.902;8.680;'2022-12-29 09:57:19';99280;;;11;48
30343;BME280;17145;49.902;8.680;'2022-12-29 09:59:46';99270;;;11;49
30343;BME280;17145;49.902;8.680;'2022-12-29 10:02:13';99270;;;11;48
30343;BME280;17145;49.902;8.680;'2022-12-29 10:04:41';99270;;;11;48
30343;BME280;17145;49.902;8.680;'2022-12-29 10:07:08';99280;;;10;48
30343;BME280;17145;49.902;8.680;'2022-12-29 10:09:36';99280;;;11;49
30343;BME280;17145;49.902;8.680;'2022-12-29 10:12:03';99290;;;10;49
30343;BME280;17145;49.902;8.680;'2022-12-29 10:14:30';99280;;;10;49
30343;BME280;17145;49.902;8.680;'2022-12-29 10:16:58';99280;;;10;49
30343;BME280;17145;49.902;8.680;'2022-12-29 10:19:25';99290;;;10;49
30343;BME280;17145;49.902;8.680;'2022-12-29 10:21:53';99290;;;10;49
30343;BME280;17145;49.902;8.680;'2022-12-29 10:24:20';99290;;;10;49
30343;BME280;17145;49.902;8.680;'2022-12-29 10:26:48';99290;;;10;49
30343;BME280;17145;49.902;8.680;'2022-12-29 10:29:15';99290;;;10;50
30343;BME280;17145;49.902;8.680;'2022-12-29 10:31:42';99290;;;10;50
30343;BME280;17145;49.902;8.680;'2022-12-29 10:34:10';99290;;;11;49
30343;BME280;17145;49.902;8.680;'2022-12-29 10:36:37';99310;;;10;50
30343;BME280;17145;49.902;8.680;'2022-12-29 10:39:04';99300;;;10;50
30343;BME280;17145;49.902;8.680;'2022-12-29 10:41:38';99310;;;10;50
30343;BME280;17145;49.902;8.680;'2022-12-29 10:44:13';99300;;;11;50
30343;BME280;17145;49.902;8.680;'2022-12-29 10:46:44';99300;;;10;50
30343;BME280;17145;49.902;8.680;'2022-12-29 10:49:21';99300;;;10;50
30343;BME280;17145;49.902;8.680;'2022-12-29 10:51:52';99300;;;11;50
30343;BME280;17145;49.902;8.680;'2022-12-29 10:54:30';99310;;;11;50
30343;BME280;17145;49.902;8.680;'2022-12-29 10:56:58';99300;;;10;51
30343;BME280;17145;49.902;8.680;'2022-12-29 10:59:35';99310;;;10;50
30343;BME280;17145;49.902;8.680;'2022-12-29 11:02:13';99290;;;11;50
30343;BME280;17145;49.902;8.680;'2022-12-29 11:04:43';99300;;;11;50
30343;BME280;17145;49.902;8.680;'2022-12-29 11:07:19';99310;;;11;50
30343;BME280;17145;49.902;8.680;'2022-12-29 11:09:57';99290;;;10;51
30343;BME280;17145;49.902;8.680;'2022-12-29 11:12:34';99300;;;10;51
30343;BME280;17145;49.902;8.680;'2022-12-29 11:15:10';99310;;;10;51
30343;BME280;17145;49.902;8.680;'2022-12-29 11:17:46';99310;;;11;52
30343;BME280;17145;49.902;8.680;'2022-12-29 11:20:25';99340;;;10;53
30343;BME280;17145;49.902;8.680;'2022-12-29 11:23:14';99350;;;10;55
30343;BME280;17145;49.902;8.680;'2022-12-29 11:25:44';99370;;;10;55
30343;BME280;17145;49.902;8.680;'2022-12-29 11:28:20';99410;;;10;58
30343;BME280;17145;49.902;8.680;'2022-12-29 11:30:49';99370;;;9;60
30343;BME280;17145;49.902;8.680;'2022-12-29 11:33:21';99380;;;9;61
30343;BME280;17145;49.902;8.680;'2022-12-29 11:35:49';99380;;;9;61
30343;BME280;17145;49.902;8.680;'2022-12-29 11:38:26';99390;;;8;61
30343;BME280;17145;49.902;8.680;'2022-12-29 11:41:00';99380;;;8;61
30343;BME280;17145;49.902;8.680;'2022-12-29 11:43:29';99380;;;9;61
30343;BME280;17145;49.902;8.680;'2022-12-29 11:46:01';99370;;;9;61
30343;BME280;17145;49.902;8.680;'2022-12-29 11:48:31';99370;;;9;62
30343;BME280;17145;49.902;8.680;'2022-12-29 11:51:02';99370;;;9;62
30343;BME280;17145;49.902;8.680;'2022-12-29 11:53:38';99370;;;9;63
30343;BME280;17145;49.902;8.680;'2022-12-29 11:56:15';99370;;;9;62
30343;BME280;17145;49.902;8.680;'2022-12-29 11:58:46';99380;;;9;62
30343;BME280;17145;49.902;8.680;'2022-12-29 12:01:13';99370;;;9;61
30343;BME280;17145;49.902;8.680;'2022-12-29 12:03:51';99380;;;9;60
30343;BME280;17145;49.902;8.680;'2022-12-29 12:06:24';99380;;;9;61
30343;BME280;17145;49.902;8.680;'2022-12-29 12:08:57';99380;;;9;61
30343;BME280;17145;49.902;8.680;'2022-12-29 12:11:27';99380;;;9;60
30343;BME280;17145;49.902;8.680;'2022-12-29 12:13:58';99380;;;9;61
30343;BME280;17145;49.902;8.680;'2022-12-29 12:16:29';99380;;;9;60
30343;BME280;17145;49.902;8.680;'2022-12-29 12:18:57';99390;;;10;59
30343;BME280;17145;49.902;8.680;'2022-12-29 12:21:30';99400;;;10;59
30343;BME280;17145;49.902;8.680;'2022-12-29 12:24:00';99410;;;9;59
30343;BME280;17145;49.902;8.680;'2022-12-29 12:29:14';99400;;;9;59
30343;BME280;17145;49.902;8.680;'2022-12-29 12:31:43';99410;;;10;58
30343;BME280;17145;49.902;8.680;'2022-12-29 12:34:17';99410;;;10;58
30343;BME280;17145;49.902;8.680;'2022-12-29 12:36:45';99410;;;9;59
30343;BME280;17145;49.902;8.680;'2022-12-29 12:39:24';99400;;;10;58
30343;BME280;17145;49.902;8.680;'2022-12-29 12:41:53';99400;;;10;58
30343;BME280;17145;49.902;8.680;'2022-12-29 12:44:21';99390;;;9;57
30343;BME280;17145;49.902;8.680;'2022-12-29 12:46:51';99390;;;9;58
30343;BME280;17145;49.902;8.680;'2022-12-29 12:49:22';99390;;;10;57
30343;BME280;17145;49.902;8.680;'2022-12-29 12:51:52';99380;;;9;57
30343;BME280;17145;49.902;8.680;'2022-12-29 12:54:24';99370;;;9;58
30343;BME280;17145;49.902;8.680;'2022-12-29 12:56:53';99380;;;9;58
30343;BME280;17145;49.902;8.680;'2022-12-29 12:59:37';99380;;;10;57
30343;BME280;17145;49.902;8.680;'2022-12-29 13:02:25';99380;;;10;57
30343;BME280;17145;49.902;8.680;'2022-12-29 13:04:59';99390;;;10;56
30343;BME280;17145;49.902;8.680;'2022-12-29 13:07:38';99390;;;10;57
30343;BME280;17145;49.902;8.680;'2022-12-29 13:10:14';99400;;;10;57
30343;BME280;17145;49.902;8.680;'2022-12-29 13:12:48';99390;;;10;58
30343;BME280;17145;49.902;8.680;'2022-12-29 13:15:21';99390;;;10;58
30343;BME280;17145;49.902;8.680;'2022-12-29 13:17:53';99390;;;10;59
30343;BME280;17145;49.902;8.680;'2022-12-29 13:20:26';99390;;;10;58
30343;BME280;17145;49.902;8.680;'2022-12-29 13:23:04';99390;;;10;59
30343;BME280;17145;49.902;8.680;'2022-12-29 13:25:37';99380;;;10;59
30343;BME280;17145;49.902;8.680;'2022-12-29 13:28:13';99370;;;10;60
30343;BME280;17145;49.902;8.680;'2022-12-29 13:30:45';99370;;;10;59
30343;BME280;17145;49.902;8.680;'2022-12-29 13:33:22';99370;;;10;58
30343;BME280;17145;49.902;8.680;'2022-12-29 13:36:01';99360;;;10;58
30343;BME280;17145;49.902;8.680;'2022-12-29 13:38:39';99370;;;10;58
30343;BME280;17145;49.902;8.680;'2022-12-29 13:41:11';99370;;;10;57
30343;BME280;17145;49.902;8.680;'2022-12-29 13:43:46';99370;;;10;57
30343;BME280;17145;49.902;8.680;'2022-12-29 13:46:28';99380;;;10;57
30343;BME280;17145;49.902;8.680;'2022-12-29 13:49:16';99370;;;9;57
30343;BME280;17145;49.902;8.680;'2022-12-29 13:51:53';99380;;;10;56
30343;BME280;17145;49.902;8.680;'2022-12-29 13:54:36';99370;;;10;56
30343;BME280;17145;49.902;8.680;'2022-12-29 13:57:15';99370;;;9;57
30343;BME280;17145;49.902;8.680;'2022-12-29 13:59:55';99370;;;10;57
30343;BME280;17145;49.902;8.680;'2022-12-29 14:02:37';99370;;;10;56
30343;BME280;17145;49.902;8.680;'2022-12-29 14:05:21';99360;;;10;55
30343;BME280;17145;49.902;8.680;'2022-12-29 14:08:00';99370;;;10;55
30343;BME280;17145;49.902;8.680;'2022-12-29 14:10:40';99370;;;10;55
30343;BME280;17145;49.902;8.680;'2022-12-29 14:13:33';99360;;;11;54
30343;BME280;17145;49.902;8.680;'2022-12-29 14:16:09';99370;;;11;54
30343;BME280;17145;49.902;8.680;'2022-12-29 14:18:46';99370;;;11;54
30343;BME280;17145;49.902;8.680;'2022-12-29 14:21:25';99370;;;11;54
30343;BME280;17145;49.902;8.680;'2022-12-29 14:24:01';99370;;;11;54
30343;BME280;17145;49.902;8.680;'2022-12-29 14:26:35';99370;;;11;53
30343;BME280;17145;49.902;8.680;'2022-12-29 14:29:11';99380;;;11;52
30343;BME280;17145;49.902;8.680;'2022-12-29 14:31:46';99370;;;11;52
30343;BME280;17145;49.902;8.680;'2022-12-29 14:34:23';99370;;;10;52
30343;BME280;17145;49.902;8.680;'2022-12-29 14:36:56';99370;;;11;52
30343;BME280;17145;49.902;8.680;'2022-12-29 14:39:28';99370;;;11;52
30343;BME280;17145;49.902;8.680;'2022-12-29 14:41:57';99380;;;10;52
30343;BME280;17145;49.902;8.680;'2022-12-29 14:44:28';99380;;;11;53
30343;BME280;17145;49.902;8.680;'2022-12-29 14:47:01';99380;;;10;52
30343;BME280;17145;49.902;8.680;'2022-12-29 14:49:30';99370;;;10;52
30343;BME280;17145;49.902;8.680;'2022-12-29 14:52:04';99370;;;11;52
30343;BME280;17145;49.902;8.680;'2022-12-29 14:54:40';99370;;;11;52
30343;BME280;17145;49.902;8.680;'2022-12-29 14:57:14';99370;;;10;52
30343;BME280;17145;49.902;8.680;'2022-12-29 14:59:51';99370;;;11;52
30343;BME280;17145;49.902;8.680;'2022-12-29 15:02:31';99370;;;11;51
30343;BME280;17145;49.902;8.680;'2022-12-29 15:05:00';99370;;;11;51
30343;BME280;17145;49.902;8.680;'2022-12-29 15:07:29';99380;;;11;51
30343;BME280;17145;49.902;8.680;'2022-12-29 15:09:57';99380;;;11;51
30343;BME280;17145;49.902;8.680;'2022-12-29 15:15:11';99370;;;11;51
30343;BME280;17145;49.902;8.680;'2022-12-29 15:17:41';99380;;;10;50
30343;BME280;17145;49.902;8.680;'2022-12-29 15:20:18';99380;;;10;50
30343;BME280;17145;49.902;8.680;'2022-12-29 15:25:38';99390;;;10;50
30343;BME280;17145;49.902;8.680;'2022-12-29 15:28:16';99390;;;10;50
30343;BME280;17145;49.902;8.680;'2022-12-29 15:30:49';99400;;;11;50
30343;BME280;17145;49.902;8.680;'2022-12-29 15:33:17';99400;;;11;49
30343;BME280;17145;49.902;8.680;'2022-12-29 15:35:47';99410;;;11;49
30343;BME280;17145;49.902;8.680;'2022-12-29 15:38:22';99400;;;11;49
30343;BME280;17145;49.902;8.680;'2022-12-29 15:40:51';99400;;;10;49
30343;BME280;17145;49.902;8.680;'2022-12-29 15:43:24';99410;;;11;49
30343;BME280;17145;49.902;8.680;'2022-12-29 15:45:57';99410;;;11;49
30343;BME280;17145;49.902;8.680;'2022-12-29 15:51:18';99410;;;10;49
30343;BME280;17145;49.902;8.680;'2022-12-29 15:53:48';99420;;;11;49
30343;BME280;17145;49.902;8.680;'2022-12-29 15:56:17';99420;;;11;49
30343;BME280;17145;49.902;8.680;'2022-12-29 15:58:50';99420;;;10;49